Time;durP1;ratioP1;P1;durP2;ratioP2;P2;SDS_P1;SDS_P2;PMS_P1;PMS_P2;Temp;Humidity;BMP_temperature;BMP_pressure;BME280_temperature;BME280_humidity;BME280_pressure;Samples;Min_cycle;Max_cycle;Signal;HPM_P1;HPM_P2
2021/06/16 00:00:47;;;;;;;10.70;7.62;;;;;;;18.41;81.45;99719.19;1785171;80;21012;-78
2021/06/16 00:03:14;;;;;;;7.58;6.65;;;;;;;18.37;81.56;99714.21;1785787;80;21074;-78
2021/06/16 00:05:41;;;;;;;7.10;6.37;;;;;;;18.33;81.72;99726.06;1784717;80;21100;-78
2021/06/16 00:08:11;;;;;;;8.65;6.72;;;;;;;18.28;82.01;99728.23;1781667;80;21071;-77
2021/06/16 00:10:38;;;;;;;8.15;7.35;;;;;;;18.27;82.06;99728.72;1781710;80;21104;-78
2021/06/16 00:13:05;;;;;;;8.18;7.03;;;;;;;18.26;82.06;99734.16;1787571;80;21487;-79
2021/06/16 00:15:36;;;;;;;8.10;7.03;;;;;;;18.22;82.10;99735.73;1779076;80;21070;-80
2021/06/16 00:18:04;;;;;;;8.98;5.97;;;;;;;18.19;82.23;99742.61;1781302;80;21071;-74
2021/06/16 00:20:31;;;;;;;10.03;7.05;;;;;;;18.16;82.43;99737.52;1781745;80;21102;-77
2021/06/16 00:22:58;;;;;;;7.58;6.87;;;;;;;18.14;82.40;99739.44;1781603;80;21135;-76
2021/06/16 00:25:26;;;;;;;9.43;7.12;;;;;;;18.13;82.45;99736.42;1780571;80;21068;-74
2021/06/16 00:27:53;;;;;;;7.60;6.80;;;;;;;18.12;82.60;99740.03;1785119;80;21515;-76
2021/06/16 00:30:22;;;;;;;9.73;7.87;;;;;;;18.11;82.94;99733.02;1774817;80;21086;-77
2021/06/16 00:32:49;;;;;;;12.05;7.67;;;;;;;18.09;83.13;99734.95;1772990;80;21577;-77
2021/06/16 00:35:18;;;;;;;9.13;6.97;;;;;;;18.05;83.30;99732.13;1785296;80;21144;-75
2021/06/16 00:37:49;;;;;;;7.12;5.17;;;;;;;18.01;83.90;99730.66;1779956;80;21070;-75
2021/06/16 00:40:19;;;;;;;9.10;6.10;;;;;;;17.95;84.04;99727.98;1779982;80;21090;-75
2021/06/16 00:42:46;;;;;;;5.55;5.03;;;;;;;17.93;84.31;99733.05;1767768;80;21060;-75
2021/06/16 00:45:14;;;;;;;7.42;6.72;;;;;;;17.90;84.40;99734.59;1774818;80;21062;-75
2021/06/16 00:47:41;;;;;;;12.10;6.95;;;;;;;17.86;84.53;99730.48;1785050;80;22062;-75
2021/06/16 00:50:09;;;;;;;7.33;6.60;;;;;;;17.81;85.05;99732.99;1774124;80;21012;-75
2021/06/16 00:52:36;;;;;;;8.68;7.62;;;;;;;17.79;85.02;99732.22;1763565;80;21540;-74
2021/06/16 00:55:05;;;;;;;8.68;7.85;;;;;;;17.79;85.16;99735.38;1774961;80;21218;-74
2021/06/16 00:57:32;;;;;;;10.65;7.33;;;;;;;17.74;85.34;99733.05;1784683;80;21105;-75
2021/06/16 01:00:08;;;;;;;10.65;7.97;;;;;;;17.71;85.80;99735.91;1779570;80;21136;-75
2021/06/16 01:02:55;;;;;;;9.75;7.97;;;;;;;17.69;85.58;99732.54;1779848;80;21054;-74
2021/06/16 01:05:25;;;;;;;8.83;7.75;;;;;;;17.68;85.47;99736.14;1784710;80;21033;-75
2021/06/16 01:07:57;;;;;;;8.23;7.35;;;;;;;17.68;85.40;99740.63;1785649;80;21050;-74
2021/06/16 01:10:24;;;;;;;8.15;7.28;;;;;;;17.66;85.38;99734.07;1779743;80;21059;-74
2021/06/16 01:13:05;;;;;;;10.10;7.37;;;;;;;17.66;85.44;99742.06;1786942;80;21600;-75
2021/06/16 01:15:44;;;;;;;9.88;7.95;;;;;;;17.65;85.51;99744.37;1786122;80;21510;-75
2021/06/16 01:18:11;;;;;;;10.72;8.98;;;;;;;17.65;85.59;99744.37;1784574;80;21051;-75
2021/06/16 01:20:41;;;;;;;15.10;8.88;;;;;;;17.64;85.73;99744.47;1785058;80;21413;-76
2021/06/16 01:23:12;;;;;;;9.70;7.75;;;;;;;17.63;85.69;99748.10;1785173;80;21046;-75
2021/06/16 01:25:55;;;;;;;11.78;8.40;;;;;;;17.61;85.69;99743.72;1754450;80;21514;-73
2021/06/16 01:28:22;;;;;;;9.78;8.20;;;;;;;17.60;85.83;99742.03;1785085;80;21030;-74
2021/06/16 01:30:49;;;;;;;8.73;7.83;;;;;;;17.60;85.85;99747.84;1784796;80;21612;-73
2021/06/16 01:33:18;;;;;;;10.08;9.05;;;;;;;17.58;85.74;99747.11;1784674;80;20995;-73
2021/06/16 01:35:47;;;;;;;10.30;8.38;;;;;;;17.57;85.66;99748.05;1784613;79;21115;-72
2021/06/16 01:38:16;;;;;;;9.35;7.28;;;;;;;17.54;85.68;99744.29;1785010;80;21259;-73
2021/06/16 01:40:43;;;;;;;8.68;7.62;;;;;;;17.55;85.92;99751.30;1784516;80;21097;-72
2021/06/16 01:43:10;;;;;;;8.78;7.65;;;;;;;17.56;86.07;99759.19;1784702;80;21045;-73
2021/06/16 01:45:38;;;;;;;8.48;7.62;;;;;;;17.54;86.15;99763.77;1774129;80;21206;-73
2021/06/16 01:48:08;;;;;;;8.73;7.62;;;;;;;17.55;86.42;99769.94;1773616;80;21072;-73
2021/06/16 01:50:35;;;;;;;8.13;7.17;;;;;;;17.55;86.71;99772.59;1773709;80;21121;-72
2021/06/16 01:53:03;;;;;;;8.98;7.30;;;;;;;17.56;86.79;99774.31;1773610;80;20981;-72
2021/06/16 01:55:30;;;;;;;11.85;8.78;;;;;;;17.57;86.38;99770.68;1775317;80;21072;-72
2021/06/16 01:57:58;;;;;;;12.68;8.13;;;;;;;17.59;85.53;99771.42;1729440;80;21024;-74
2021/06/16 02:00:25;;;;;;;11.38;8.75;;;;;;;17.59;85.73;99766.10;1782689;80;21553;-73
2021/06/16 02:02:54;;;;;;;15.72;8.70;;;;;;;17.59;85.66;99766.10;1782641;80;21192;-74
2021/06/16 02:05:21;;;;;;;9.95;8.78;;;;;;;17.59;85.87;99768.77;1782369;80;21001;-75
2021/06/16 02:07:59;;;;;;;10.58;9.28;;;;;;;17.56;85.81;99779.64;1781926;80;21030;-76
2021/06/16 02:10:30;;;;;;;13.13;9.28;;;;;;;17.51;85.87;99781.80;1784760;80;21098;-75
2021/06/16 02:12:58;;;;;;;;;;;;;;;17.47;86.33;99791.80;1787323;80;21082;-75
2021/06/16 02:15:28;;;;;;;9.00;7.50;;;;;;;17.44;86.61;99793.80;1784705;80;21123;-74
2021/06/16 02:17:56;;;;;;;10.32;9.10;;;;;;;17.42;87.00;99799.75;1784444;80;21026;-73
2021/06/16 02:20:23;;;;;;;7.28;6.15;;;;;;;17.42;87.16;99798.42;1784581;80;21524;-74
2021/06/16 02:22:50;;;;;;;9.75;7.85;;;;;;;17.38;87.07;99805.27;1784641;80;21027;-82
2021/06/16 02:25:18;;;;;;;8.40;7.60;;;;;;;17.37;87.52;99809.39;1784931;80;21651;-74
2021/06/16 02:27:45;;;;;;;8.23;6.28;;;;;;;17.30;87.79;99812.95;1784423;80;21269;-73
2021/06/16 02:30:15;;;;;;;10.20;9.05;;;;;;;17.25;88.73;99809.73;1784639;80;21045;-73
2021/06/16 02:32:42;;;;;;;9.25;7.30;;;;;;;17.25;88.83;99819.05;1784467;80;21088;-75
2021/06/16 02:35:11;;;;;;;10.28;9.28;;;;;;;17.22;89.00;99821.09;1784682;79;21631;-74
2021/06/16 02:37:43;;;;;;;14.40;9.33;;;;;;;17.19;88.99;99819.50;1784655;80;21702;-73
2021/06/16 02:40:12;;;;;;;10.75;9.33;;;;;;;17.19;89.36;99824.83;1764570;80;21102;-72
2021/06/16 02:42:42;;;;;;;;;;;;;;;17.21;89.11;99820.25;1787131;79;21073;-73
2021/06/16 02:45:12;;;;;;;14.00;9.65;;;;;;;17.24;89.44;99825.34;1784651;80;20177;-74
2021/06/16 02:47:41;;;;;;;10.85;9.75;;;;;;;17.27;88.98;99824.28;1786405;79;21584;-73
2021/06/16 02:50:11;;;;;;;12.88;9.80;;;;;;;17.31;89.05;99827.95;1793467;79;21053;-75
2021/06/16 02:52:41;;;;;;;12.00;9.30;;;;;;;17.35;88.90;99830.78;1793262;80;21412;-74
2021/06/16 02:55:10;;;;;;;9.78;7.45;;;;;;;17.36;88.82;99836.46;1793625;80;21563;-73
2021/06/16 02:57:39;;;;;;;9.30;8.33;;;;;;;17.37;88.67;99842.17;1793304;80;21072;-72
2021/06/16 03:00:10;;;;;;;;;;;;;;;17.42;88.53;99835.69;1793829;79;21088;-73
2021/06/16 03:02:39;;;;;;;11.12;9.85;;;;;;;17.46;88.47;99830.48;1774749;80;20207;-73
2021/06/16 03:05:09;;;;;;;11.18;9.53;;;;;;;17.46;88.13;99825.17;1775215;80;21116;-71
2021/06/16 03:07:36;;;;;;;11.00;9.83;;;;;;;17.48;87.83;99828.09;1748624;80;21077;-74
2021/06/16 03:10:05;;;;;;;13.90;9.75;;;;;;;17.52;87.71;99819.42;1774646;80;21050;-74
2021/06/16 03:12:32;;;;;;;11.93;10.10;;;;;;;17.53;87.67;99817.99;1774920;80;21086;-74
2021/06/16 03:15:00;;;;;;;12.18;9.68;;;;;;;17.58;87.46;99816.33;1745090;80;21057;-79
2021/06/16 03:17:28;;;;;;;11.05;9.73;;;;;;;17.62;87.26;99812.47;1771285;79;21252;-78
2021/06/16 03:19:57;;;;;;;12.40;10.23;;;;;;;17.66;86.79;99812.63;1781329;79;21079;-77
2021/06/16 03:22:24;;;;;;;12.00;10.80;;;;;;;17.68;86.42;99807.20;1772378;80;21673;-80
2021/06/16 03:24:51;;;;;;;14.05;10.43;;;;;;;17.72;86.41;99812.20;1772751;79;21106;-77
2021/06/16 03:27:22;;;;;;;12.28;10.23;;;;;;;17.76;86.41;99813.69;1772546;79;21012;-81
2021/06/16 03:29:52;;;;;;;11.38;10.18;;;;;;;17.81;86.01;99809.39;1774964;80;21609;-77
2021/06/16 03:32:20;;;;;;;11.12;9.28;;;;;;;17.88;85.86;99820.45;1778782;80;20995;-80
2021/06/16 03:34:48;;;;;;;10.38;9.08;;;;;;;17.94;85.67;99821.32;1769493;80;21032;-82
2021/06/16 03:37:15;;;;;;;18.35;9.95;;;;;;;18.05;85.91;99824.06;1774842;80;22258;-79
2021/06/16 03:39:42;;;;;;;10.68;9.15;;;;;;;18.13;85.55;99823.48;1729525;80;21053;-81
2021/06/16 03:42:09;;;;;;;13.20;8.93;;;;;;;18.23;85.28;99825.37;1769891;80;21134;-79
2021/06/16 03:44:36;;;;;;;10.78;9.18;;;;;;;18.39;85.06;99833.09;1774652;80;21531;-80
2021/06/16 03:47:05;;;;;;;9.88;8.53;;;;;;;18.52;84.58;99831.70;1774826;80;21042;-80
2021/06/16 03:49:32;;;;;;;10.45;9.18;;;;;;;18.65;83.75;99829.80;1788694;80;21037;-80
2021/06/16 03:52:00;;;;;;;11.85;9.20;;;;;;;18.78;82.89;99832.43;1790609;80;21041;-79
2021/06/16 03:54:27;;;;;;;10.53;9.23;;;;;;;18.90;82.15;99833.31;1776482;80;21133;-79
2021/06/16 03:56:54;;;;;;;10.32;9.15;;;;;;;19.01;81.27;99832.01;1761605;80;21587;-79
2021/06/16 03:59:21;;;;;;;11.57;9.45;;;;;;;19.12;80.06;99834.31;1790197;80;21135;-76
2021/06/16 04:01:48;;;;;;;12.73;10.15;;;;;;;19.21;79.60;99829.60;1780277;80;21035;-78
2021/06/16 04:04:15;;;;;;;13.48;9.10;;;;;;;19.32;79.10;99832.28;1773881;80;21044;-78
2021/06/16 04:06:43;;;;;;;13.10;10.08;;;;;;;19.45;78.60;99835.70;1789940;80;21162;-75
2021/06/16 04:09:14;;;;;;;17.62;9.75;;;;;;;19.61;77.64;99841.17;1790630;80;21606;-78
2021/06/16 04:11:43;;;;;;;14.68;9.13;;;;;;;19.75;76.72;99842.29;1789264;80;21105;-77
2021/06/16 04:14:10;;;;;;;14.60;9.48;;;;;;;19.89;75.87;99847.37;1790490;80;21044;-76
2021/06/16 04:16:42;;;;;;;12.53;8.93;;;;;;;20.05;75.16;99852.83;1788324;80;21116;-77
2021/06/16 04:19:09;;;;;;;12.07;8.10;;;;;;;20.31;74.85;99854.70;1769599;80;21098;-76
2021/06/16 04:21:36;;;;;;;18.17;8.23;;;;;;;20.63;72.17;99857.41;1786554;80;21039;-78
2021/06/16 04:24:06;;;;;;;12.35;7.78;;;;;;;20.98;71.14;99857.64;1786181;79;21014;-79
2021/06/16 04:26:33;;;;;;;8.38;6.35;;;;;;;21.25;69.86;99857.09;1790363;79;21142;-78
2021/06/16 04:29:00;;;;;;;11.03;6.53;;;;;;;21.51;68.15;99857.56;1792657;79;21085;-80
2021/06/16 04:31:27;;;;;;;13.72;6.62;;;;;;;21.76;67.67;99851.38;1790246;80;21081;-78
2021/06/16 04:33:55;;;;;;;8.15;6.87;;;;;;;22.02;66.38;99862.95;1790048;80;21023;-78
2021/06/16 04:36:22;;;;;;;10.95;6.83;;;;;;;22.18;63.69;99853.91;1790666;80;21050;-85
2021/06/16 04:38:49;;;;;;;7.70;6.20;;;;;;;22.21;62.68;99850.98;1790665;80;21581;-81
2021/06/16 04:41:17;;;;;;;11.97;6.85;;;;;;;22.13;62.44;99853.45;1789972;80;21027;-72
2021/06/16 04:43:44;;;;;;;8.38;7.12;;;;;;;22.06;62.82;99852.31;1790570;80;22456;-73
2021/06/16 04:46:11;;;;;;;13.00;7.15;;;;;;;22.07;63.10;99859.39;1790195;80;21511;-75
2021/06/16 04:48:43;;;;;;;12.75;7.15;;;;;;;22.17;62.71;99857.56;1784486;80;21120;-73
2021/06/16 04:51:10;;;;;;;;;;;;;;;22.25;62.18;99859.11;1786566;80;21018;-74
2021/06/16 04:53:37;;;;;;;15.50;7.25;;;;;;;22.31;61.57;99862.56;1782682;80;20180;-76
2021/06/16 04:56:04;;;;;;;9.10;6.10;;;;;;;22.37;61.91;99863.36;1781847;79;21745;-75
2021/06/16 04:58:32;;;;;;;11.70;6.58;;;;;;;22.49;61.81;99864.57;1784983;80;21057;-75
2021/06/16 05:00:59;;;;;;;9.45;6.40;;;;;;;22.65;60.65;99867.55;1783617;80;21050;-76
2021/06/16 05:03:26;;;;;;;9.65;6.17;;;;;;;22.72;60.23;99867.33;1781697;80;21108;-78
2021/06/16 05:05:53;;;;;;;13.38;6.10;;;;;;;22.75;60.12;99865.73;1776930;80;21057;-76
2021/06/16 05:08:20;;;;;;;8.50;6.42;;;;;;;22.80;59.67;99867.48;1773300;80;21138;-75
2021/06/16 05:10:47;;;;;;;9.70;6.22;;;;;;;22.82;58.58;99866.85;1776634;79;21017;-75
2021/06/16 05:13:22;;;;;;;8.40;5.83;;;;;;;22.80;59.34;99866.14;1775590;78;21007;-73
2021/06/16 05:15:51;;;;;;;8.98;5.83;;;;;;;22.92;58.76;99866.84;1780183;79;21062;-76
2021/06/16 05:18:18;;;;;;;9.53;5.80;;;;;;;23.15;58.94;99864.72;1779302;79;21609;-75
2021/06/16 05:20:45;;;;;;;8.68;5.90;;;;;;;23.47;57.79;99863.52;1779108;79;21732;-74
2021/06/16 05:23:12;;;;;;;10.25;5.60;;;;;;;23.83;56.27;99860.98;1784552;80;21072;-75
2021/06/16 05:25:41;;;;;;;10.88;6.22;;;;;;;24.16;56.05;99857.37;1778445;79;21112;-73
2021/06/16 05:28:09;;;;;;;9.30;6.30;;;;;;;24.51;54.17;99866.00;1781616;79;21070;-75
2021/06/16 05:30:37;;;;;;;8.65;6.25;;;;;;;24.68;53.87;99869.69;1780114;79;21061;-75
2021/06/16 05:33:04;;;;;;;8.75;5.42;;;;;;;24.71;52.59;99866.70;1780291;79;21130;-75
2021/06/16 05:35:31;;;;;;;11.60;6.20;;;;;;;24.59;52.66;99866.57;1779480;80;21117;-75
2021/06/16 05:37:58;;;;;;;8.35;5.53;;;;;;;24.48;53.44;99867.16;1784657;80;21049;-74
2021/06/16 05:40:25;;;;;;;11.15;5.03;;;;;;;24.44;54.34;99869.77;1784523;80;21500;-76
2021/06/16 05:42:52;;;;;;;8.28;5.60;;;;;;;24.49;53.78;99872.88;1785842;80;21052;-73
2021/06/16 05:45:19;;;;;;;26.17;5.53;;;;;;;24.46;53.53;99874.50;1754377;80;21835;-73
2021/06/16 05:47:46;;;;;;;10.40;4.97;;;;;;;24.53;53.64;99879.32;1776015;80;21049;-74
2021/06/16 05:50:14;;;;;;;8.10;5.08;;;;;;;24.67;52.93;99876.93;1779445;80;21058;-74
2021/06/16 05:52:44;;;;;;;7.62;5.08;;;;;;;24.74;51.97;99883.05;1774230;80;21053;-75
2021/06/16 05:55:12;;;;;;;9.20;5.37;;;;;;;24.71;51.64;99884.20;1785390;79;21088;-76
2021/06/16 05:57:39;;;;;;;8.80;4.72;;;;;;;24.60;52.06;99885.78;1784642;80;21129;-75
2021/06/16 06:00:09;;;;;;;8.18;4.47;;;;;;;24.49;52.65;99887.68;1784822;80;21067;-77
2021/06/16 06:02:36;;;;;;;11.22;4.72;;;;;;;24.47;52.78;99886.98;1783240;80;21082;-75
2021/06/16 06:05:06;;;;;;;5.58;4.47;;;;;;;24.52;52.68;99891.07;1777415;79;21051;-75
2021/06/16 06:07:32;;;;;;;6.35;4.60;;;;;;;24.61;52.44;99890.16;1777505;79;21575;-76
2021/06/16 06:09:59;;;;;;;8.35;4.47;;;;;;;24.57;51.51;99894.14;1752056;81;21125;-75
2021/06/16 06:12:26;;;;;;;16.45;5.25;;;;;;;24.43;51.74;99896.83;1774187;80;21043;-76
2021/06/16 06:14:54;;;;;;;10.55;4.80;;;;;;;24.30;52.97;99901.25;1777939;80;21132;-78
2021/06/16 06:17:22;;;;;;;6.30;4.35;;;;;;;24.32;53.57;99899.25;1780277;80;21635;-76
2021/06/16 06:19:48;;;;;;;19.62;5.42;;;;;;;24.39;53.00;99906.23;1780952;80;21055;-76
2021/06/16 06:22:15;;;;;;;10.35;5.00;;;;;;;24.38;52.83;99904.01;1782749;80;21159;-79
2021/06/16 06:24:42;;;;;;;11.08;4.40;;;;;;;24.29;52.83;99911.17;1776170;80;21029;-77
2021/06/16 06:27:10;;;;;;;7.90;4.53;;;;;;;24.29;53.48;99907.13;1776794;80;21481;-77
2021/06/16 06:29:37;;;;;;;12.23;4.90;;;;;;;24.46;53.45;99909.50;1745451;80;21108;-75
2021/06/16 06:32:05;;;;;;;9.65;4.60;;;;;;;24.57;52.55;99911.17;1779870;79;21057;-77
2021/06/16 06:34:32;;;;;;;7.85;4.62;;;;;;;24.64;52.76;99911.38;1783764;79;21132;-77
2021/06/16 06:36:59;;;;;;;7.50;4.92;;;;;;;24.71;52.43;99901.72;1783363;80;21052;-78
2021/06/16 06:39:26;;;;;;;9.50;4.35;;;;;;;24.76;52.27;99908.82;1782426;80;21084;-75
2021/06/16 06:41:53;;;;;;;10.05;4.00;;;;;;;24.88;51.28;99910.27;1782240;80;21550;-77
2021/06/16 06:44:20;;;;;;;21.07;4.97;;;;;;;24.96;50.28;99908.65;1782406;80;21066;-78
2021/06/16 06:46:48;;;;;;;8.78;4.20;;;;;;;24.91;50.46;99911.33;1773637;80;21174;-77
2021/06/16 06:49:15;;;;;;;6.78;4.40;;;;;;;25.01;50.51;99912.59;1786221;80;21460;-76
2021/06/16 06:51:42;;;;;;;10.38;4.67;;;;;;;25.22;50.11;99910.94;1788606;80;21049;-77
2021/06/16 06:54:09;;;;;;;15.28;4.62;;;;;;;25.62;50.26;99909.52;1788769;80;21045;-79
2021/06/16 06:56:38;;;;;;;9.20;4.37;;;;;;;26.22;50.11;99908.65;1740691;81;21095;-78
2021/06/16 06:59:05;;;;;;;10.40;4.50;;;;;;;26.82;47.66;99907.63;1783880;79;22138;-78
2021/06/16 07:01:32;;;;;;;6.90;4.37;;;;;;;27.26;46.81;99914.09;1777733;79;21057;-78
2021/06/16 07:04:01;;;;;;;8.45;4.53;;;;;;;27.79;45.49;99907.25;1802664;79;21044;-76
2021/06/16 07:06:30;;;;;;;8.65;4.90;;;;;;;28.24;42.93;99899.48;1773205;80;21137;-76
2021/06/16 07:08:58;;;;;;;8.00;4.70;;;;;;;28.47;44.03;99898.20;1788716;80;21049;-75
2021/06/16 07:11:25;;;;;;;5.97;3.45;;;;;;;28.82;42.53;99901.34;1785970;80;21729;-75
2021/06/16 07:13:53;;;;;;;6.95;3.77;;;;;;;28.84;41.70;99908.27;1785953;79;20976;-77
2021/06/16 07:16:20;;;;;;;6.03;3.75;;;;;;;28.85;41.42;99901.84;1785771;80;21299;-77
2021/06/16 07:18:48;;;;;;;15.43;4.03;;;;;;;28.96;40.34;99900.55;1785606;80;21070;-77
2021/06/16 07:21:16;;;;;;;6.20;3.75;;;;;;;28.86;39.74;99895.38;1790128;80;21133;-76
2021/06/16 07:23:44;;;;;;;6.62;3.62;;;;;;;28.74;38.99;99891.42;1789888;80;21564;-74
2021/06/16 07:26:11;;;;;;;12.53;3.98;;;;;;;28.60;40.16;99900.34;1790232;80;21552;-79
2021/06/16 07:28:38;;;;;;;5.12;3.70;;;;;;;28.56;40.91;99895.77;1790162;80;21058;-76
2021/06/16 07:31:05;;;;;;;5.42;3.70;;;;;;;28.60;40.97;99893.05;1790059;80;21566;-76
2021/06/16 07:33:32;;;;;;;8.48;3.95;;;;;;;28.59;40.72;99895.92;1788990;79;21059;-75
2021/06/16 07:35:59;;;;;;;5.45;3.83;;;;;;;28.37;41.51;99905.69;1777587;79;21532;-77
2021/06/16 07:38:26;;;;;;;11.22;3.60;;;;;;;28.31;41.71;99902.33;1787524;79;21031;-77
2021/06/16 07:40:53;;;;;;;9.28;4.03;;;;;;;28.39;40.94;99902.27;1784870;80;21056;-77
2021/06/16 07:43:20;;;;;;;7.55;3.37;;;;;;;28.45;41.81;99905.62;1784554;80;21073;-77
2021/06/16 07:45:47;;;;;;;4.72;3.42;;;;;;;28.68;40.07;99904.84;1782448;80;21018;-77
2021/06/16 07:48:14;;;;;;;8.80;3.75;;;;;;;28.88;39.84;99897.92;1785438;79;21978;-77
2021/06/16 07:53:30;;;;;;;6.25;3.27;;;;;;;28.97;39.68;99896.84;1783798;79;22747;-77
2021/06/16 07:55:57;;;;;;;4.85;3.02;;;;;;;28.76;39.52;99902.92;1751949;81;21539;-77
2021/06/16 07:58:25;;;;;;;4.10;3.15;;;;;;;28.71;39.35;99895.83;1750540;81;21105;-76
2021/06/16 08:00:53;;;;;;;6.70;3.22;;;;;;;28.83;39.13;99897.11;1754810;81;21096;-77
2021/06/16 08:03:20;;;;;;;9.00;3.35;;;;;;;28.98;38.58;99903.09;1749537;81;21108;-77
2021/06/16 08:05:50;;;;;;;4.95;3.47;;;;;;;29.03;38.98;99901.54;1747106;81;21045;-76
2021/06/16 08:08:18;;;;;;;6.10;2.65;;;;;;;29.23;38.58;99902.41;1755173;81;21048;-77
2021/06/16 08:10:44;;;;;;;4.92;2.25;;;;;;;29.40;36.98;99907.16;1755154;81;21143;-77
2021/06/16 08:13:12;;;;;;;2.62;2.10;;;;;;;29.48;36.68;99891.64;1755357;81;21021;-76
2021/06/16 08:15:39;;;;;;;6.00;3.35;;;;;;;29.66;36.07;99896.72;1755182;81;21140;-76
2021/06/16 08:18:07;;;;;;;9.05;4.55;;;;;;;29.74;35.27;99902.59;1755340;81;21030;-77
2021/06/16 08:20:35;;;;;;;9.25;2.80;;;;;;;29.68;35.64;99906.06;1755162;81;21053;-78
2021/06/16 08:23:03;;;;;;;4.65;2.30;;;;;;;29.39;35.06;99902.25;1755140;81;21770;-76
2021/06/16 08:25:29;;;;;;;5.15;2.50;;;;;;;28.97;35.54;99907.68;1752482;81;21065;-75
2021/06/16 08:27:56;;;;;;;4.85;2.30;;;;;;;28.77;36.38;99902.41;1754415;81;21598;-76
2021/06/16 08:30:23;;;;;;;7.67;2.52;;;;;;;28.73;35.71;99894.30;1719839;83;21069;-77
2021/06/16 08:32:50;;;;;;;9.28;1.90;;;;;;;28.94;36.60;99904.48;1713993;83;21032;-76
2021/06/16 08:35:18;;;;;;;5.65;1.98;;;;;;;29.24;33.50;99898.17;1681912;83;21133;-76
2021/06/16 08:37:46;;;;;;;7.03;2.20;;;;;;;29.71;32.64;99901.61;1665941;84;21128;-76
2021/06/16 08:40:15;;;;;;;8.95;2.10;;;;;;;30.11;32.18;99896.71;1668627;84;21079;-76
2021/06/16 08:42:43;;;;;;;6.42;1.90;;;;;;;30.35;31.84;99905.62;1667851;84;21063;-76
2021/06/16 08:45:12;;;;;;;6.22;2.10;;;;;;;30.37;31.77;99900.32;1649583;86;21082;-77
2021/06/16 08:47:41;;;;;;;7.53;2.00;;;;;;;30.57;32.72;99902.41;1656249;85;21094;-77
2021/06/16 08:50:10;;;;;;;3.27;2.10;;;;;;;31.44;32.06;99909.02;1651130;85;21133;-76
2021/06/16 08:52:38;;;;;;;9.30;2.00;;;;;;;31.44;32.06;99909.02;1677411;85;21497;-76
2021/06/16 08:55:08;;;;;;;3.22;1.90;;;;;;;31.47;31.96;99905.05;1640683;85;21123;-77
2021/06/16 08:57:35;;;;;;;4.13;1.90;;;;;;;31.49;31.43;99906.53;1688168;83;21383;-76
2021/06/16 09:00:05;;;;;;;5.42;1.95;;;;;;;31.45;31.05;99905.27;1662844;85;21025;-77
2021/06/16 09:02:32;;;;;;;;;;;;;;;31.48;31.20;99910.30;1690392;83;21674;-77
2021/06/16 09:04:59;;;;;;;7.67;1.40;;;;;;;31.61;30.49;99905.98;1692281;83;20192;-76
2021/06/16 09:07:29;;;;;;;6.17;1.15;;;;;;;31.82;27.76;99905.92;1692649;82;21089;-76
2021/06/16 09:10:18;;;;;;;1.20;0.93;;;;;;;32.03;27.40;99918.63;1644068;86;21072;-77
2021/06/16 09:12:59;;;;;;;3.33;1.42;;;;;;;32.35;26.10;99908.92;1630658;86;21154;-80
2021/06/16 09:15:29;;;;;;;4.92;1.50;;;;;;;32.59;26.16;99909.43;1674486;84;21573;-76
2021/06/16 09:18:04;;;;;;;4.10;1.35;;;;;;;32.65;25.51;99907.75;1703943;81;22263;-76
2021/06/16 09:20:40;;;;;;;3.77;1.20;;;;;;;32.45;25.26;99910.41;1709534;83;21066;-77
2021/06/16 09:23:18;;;;;;;4.33;1.40;;;;;;;32.04;25.83;99920.83;1698235;82;21069;-78
2021/06/16 09:26:12;;;;;;;7.58;1.80;;;;;;;31.78;26.31;99916.89;1703215;83;21127;-76
2021/06/16 09:28:44;;;;;;;44.38;3.55;;;;;;;31.56;26.57;99912.02;1700169;83;21058;-75
2021/06/16 09:31:13;;;;;;;8.43;1.32;;;;;;;31.48;28.17;99918.47;1699101;83;21069;-76
2021/06/16 09:33:41;;;;;;;8.05;1.72;;;;;;;31.73;27.86;99907.13;1698421;83;21057;-79
2021/06/16 09:36:16;;;;;;;3.22;1.57;;;;;;;31.97;27.88;99917.54;1697878;83;21090;-78
2021/06/16 09:38:48;;;;;;;2.35;1.40;;;;;;;32.10;27.11;99907.77;1705220;83;21114;-79
2021/06/16 09:41:19;;;;;;;5.47;1.45;;;;;;;32.18;27.95;99911.14;1701327;83;21101;-78
2021/06/16 09:43:46;;;;;;;6.75;1.75;;;;;;;32.53;26.86;99906.16;1704353;83;21042;-78
2021/06/16 09:46:14;;;;;;;2.62;1.50;;;;;;;32.36;27.20;99913.31;1696400;83;22370;-78
2021/06/16 09:48:45;;;;;;;2.52;1.70;;;;;;;32.39;27.21;99904.75;1701434;83;21081;-76
2021/06/16 09:51:27;;;;;;;5.92;1.70;;;;;;;32.45;27.11;99898.15;1704725;82;21826;-81
2021/06/16 09:54:17;;;;;;;18.17;2.75;;;;;;;32.03;28.13;99908.27;1704480;82;21120;-79
2021/06/16 09:57:04;;;;;;;9.15;2.15;;;;;;;31.91;28.74;99910.16;1700602;82;21564;-75
2021/06/16 09:59:39;;;;;;;4.62;1.62;;;;;;;32.21;28.40;99905.83;1705162;82;21014;-77
2021/06/16 10:02:23;;;;;;;10.32;2.20;;;;;;;32.45;27.64;99894.06;1688690;82;21088;-77
2021/06/16 10:04:56;;;;;;;8.15;1.80;;;;;;;32.52;27.88;99901.23;1709706;83;21120;-77
2021/06/16 10:07:22;;;;;;;4.03;1.62;;;;;;;32.65;27.19;99900.44;1697781;83;21072;-77
2021/06/16 10:10:01;;;;;;;6.85;1.90;;;;;;;32.87;26.73;99905.70;1686767;83;21026;-77
2021/06/16 10:12:38;;;;;;;6.90;1.67;;;;;;;32.85;27.64;99894.16;1700450;83;21607;-77
2021/06/16 10:15:09;;;;;;;3.02;1.60;;;;;;;32.99;26.86;99890.39;1705412;83;21017;-76
2021/06/16 10:17:37;;;;;;;5.10;2.72;;;;;;;33.10;26.26;99900.72;1703628;83;21098;-76
2021/06/16 10:20:06;;;;;;;6.17;2.15;;;;;;;33.16;26.31;99890.34;1659203;84;21072;-76
2021/06/16 10:22:33;;;;;;;6.80;2.10;;;;;;;33.18;26.40;99885.52;1670850;84;21095;-77
2021/06/16 10:25:00;;;;;;;3.45;1.45;;;;;;;33.15;25.95;99891.41;1703369;83;21672;-77
2021/06/16 10:27:41;;;;;;;5.00;1.75;;;;;;;33.03;25.76;99883.48;1706365;83;21054;-76
2021/06/16 10:30:13;;;;;;;8.85;1.47;;;;;;;32.90;25.87;99880.73;1704131;83;21167;-76
2021/06/16 10:32:47;;;;;;;3.40;1.30;;;;;;;32.94;25.59;99882.00;1697633;83;21067;-77
2021/06/16 10:35:15;;;;;;;5.87;1.30;;;;;;;32.93;25.77;99876.25;1700541;83;21540;-77
2021/06/16 10:37:44;;;;;;;5.70;1.50;;;;;;;33.06;25.31;99874.93;1672551;85;22201;-77
2021/06/16 10:40:25;;;;;;;5.53;1.47;;;;;;;33.02;25.87;99882.64;1681049;83;21144;-74
2021/06/16 10:43:10;;;;;;;3.45;1.52;;;;;;;33.22;25.14;99882.69;1703677;83;21827;-79
2021/06/16 10:45:45;;;;;;;2.30;1.20;;;;;;;33.27;25.47;99881.19;1695941;83;21076;-75
2021/06/16 10:48:12;;;;;;;4.70;1.70;;;;;;;33.36;24.98;99884.02;1697065;82;21115;-74
2021/06/16 10:51:01;;;;;;;2.87;1.20;;;;;;;33.38;25.23;99886.01;1708051;82;21486;-74
2021/06/16 10:53:44;;;;;;;1.30;1.20;;;;;;;33.34;25.52;99887.51;1675412;85;21052;-74
2021/06/16 10:56:44;;;;;;;3.90;1.15;;;;;;;33.01;25.38;99893.25;1653452;83;21319;-74
2021/06/16 10:59:12;;;;;;;3.72;1.10;;;;;;;32.93;25.33;99885.80;1706525;82;21131;-73
2021/06/16 11:01:48;;;;;;;16.05;1.95;;;;;;;33.06;25.69;99885.84;1705976;83;21097;-74
2021/06/16 11:04:28;;;;;;;7.30;1.45;;;;;;;33.17;25.96;99889.27;1713039;83;21094;-74
2021/06/16 11:06:55;;;;;;;4.65;1.65;;;;;;;33.21;25.54;99885.08;1720296;83;21563;-74
2021/06/16 11:09:54;;;;;;;8.80;2.12;;;;;;;33.00;25.75;99885.27;1708572;83;21061;-75
2021/06/16 11:12:30;;;;;;;4.83;1.72;;;;;;;32.66;25.97;99884.38;1710358;82;21500;-73
2021/06/16 11:15:02;;;;;;;2.67;1.50;;;;;;;32.37;26.43;99887.76;1701872;83;21099;-73
2021/06/16 11:17:42;;;;;;;5.60;1.32;;;;;;;31.98;26.72;99897.45;1692284;84;21062;-75
2021/06/16 11:20:14;;;;;;;3.15;1.40;;;;;;;31.53;27.58;99896.94;1709134;83;21081;-73
2021/06/16 11:22:55;;;;;;;3.87;1.20;;;;;;;31.18;28.02;99896.55;1717375;83;21154;-74
2021/06/16 11:25:35;;;;;;;7.30;1.70;;;;;;;31.19;28.31;99894.97;1712644;83;21075;-74
2021/06/16 11:28:23;;;;;;;2.33;1.40;;;;;;;31.49;28.08;99885.28;1717009;81;21104;-77
2021/06/16 11:30:59;;;;;;;2.62;1.30;;;;;;;31.84;27.18;99884.78;1676478;83;22256;-74
2021/06/16 11:33:30;;;;;;;2.20;1.20;;;;;;;32.05;26.87;99883.00;1698158;83;21164;-74
2021/06/16 11:36:14;;;;;;;7.22;1.50;;;;;;;31.71;27.21;99896.95;1707858;83;21022;-73
2021/06/16 11:38:53;;;;;;;6.97;1.50;;;;;;;31.05;27.36;99887.22;1697170;83;21043;-72
2021/06/16 11:41:22;;;;;;;5.70;1.50;;;;;;;30.64;27.43;99891.92;1718716;83;22228;-75
2021/06/16 11:43:59;;;;;;;4.70;1.30;;;;;;;30.22;27.91;99888.60;1700710;83;21716;-75
2021/06/16 11:46:38;;;;;;;3.00;1.25;;;;;;;30.13;28.87;99890.58;1708447;83;21029;-72